Tiempo atmosférico en la estación meteorológica de Fisterra, A Coruña (230 m.)

Fecha
DESCASC
Temp. máxima en grados centígrados (hora)
DESCASC
Temp. mínima en grados centígrados (hora)
DESCASC
Temp. media en grados centígrados
DESCASC
Racha de viento máxima en m/sg (hora)
DESCASC
Velocidad máxima media en intervalos de 10 minutos(hora)
DESCASC
Precipitaciones diarias en mm
DESCASC
Precipitaciones de 00:00 a 06:00 en mm
DESCASC
Precipitaciones de 06:00 a 12:00 en mm
DESCASC
Precipitaciones de 12:00 a 18:00 en mm
DESCASC
Precipitaciones de 18:00 a 24:00 en mm
DESCASC
23-11-2017 15.1 (15:20) 12.7 (23:59) 13.9 20.56 (13:50) 11.11 (07:40) 2.4 0 0.2 0 2.2
22-11-2017 15.2 (18:50) 12.9 (08:10) 14 36.11 (13:20) 22.5 (17:00) 21.4 0 0 21.4 0
21-11-2017 17.8 (13:40) 13 (18:50) 15.4 22.22 (23:10) 11.67 (23:10) 0 0 0 0 0
20-11-2017 16.7 (13:30) 12.2 (07:00) 14.5 13.61 (23:30) 10 (23:50) 0 0 0 0 0
19-11-2017 19.5 (14:30) 13.2 (00:00) 16.3 3.89 (15:10) 2.22 (08:10) 0 0 0 0 0
18-11-2017 17.9 (13:30) 12.2 (00:00) 15 8.33 (01:40) 4.17 (06:20) 0 0 0 0 0
17-11-2017 16.8 (12:30) 11.6 (00:00) 14.2 15 (06:30) 8.89 (06:30) 0 0 0 0 0
16-11-2017 15.6 (12:30) 10.3 (00:00) 13 12.5 (22:10) 8.89 (18:40) 0 0 0 0 0
15-11-2017 16 (14:30) 10.4 (00:00) 13.2 7.22 (14:20) 5.28 (06:30) 0 0 0 0 0
14-11-2017 13.5 (13:50) 8.1 (00:00) 10.8 18.33 (02:20) 11.94 (04:30) 0 0 0 0 0
13-11-2017 13.5 (14:20) 9.2 (00:00) 11.3 18.61 (23:10) 8.61 (18:20) 0 0 0 0 0
12-11-2017 13.8 (14:50) 11.8 (00:00) 12.8 10.56 (08:30) 6.67 (22:20) 0.8 0 0 0.6 0.2
11-11-2017 14 (15:50) 11.7 (00:00) 12.8 11.39 (13:40) 8.33 (03:40) 0 0 0 0 0
10-11-2017 13.7 (15:30) 11.4 (00:00) 12.5 14.44 (14:10) 8.61 (14:10) 0.2 0 0.2 0 0
09-11-2017 13 (14:30) 9.8 (00:00) 11.4 13.89 (15:10) 8.89 (10:00) 1.8 0.6 1 0.2 0
08-11-2017 12.8 (14:00) 10 (00:00) 11.4 15.83 (11:30) 9.17 (06:00) 0 0 0 0 0
07-11-2017 13 (17:10) 10.2 (00:00) 11.6 16.67 (15:30) 11.39 (15:30) 0.8 0 0.4 0.4 0
06-11-2017 14.5 (13:30) 10 (00:00) 12.3 14.72 (21:20) 10.56 (21:30) 0 0 0 0 0
05-11-2017 13.2 (14:10) 10.6 (00:00) 11.9 16.39 (00:50) 10.56 (00:30) 0 0 0 0 0
04-11-2017 15.1 (12:50) 11.4 (00:00) 13.3 22.5 (15:50) 15 (15:50) 0 0 0 0 0
03-11-2017 16.3 (12:20) 12.1 (00:00) 14.2 16.39 (14:30) 8.61 (00:50) 26.8 0.8 0 4.6 21.4
02-11-2017 15.6 (12:40) 12.2 (07:40) 13.9 19.17 (10:50) 9.44 (15:10) 53.4 22.8 26 0 4.6
01-11-2017 15.9 (00:00) 14.5 (00:00) 15.2 21.39 (20:20) 11.94 (13:40) 1 0 0 0 1
31-10-2017 20.4 (13:40) 12.5 (00:00) 16.4 16.67 (00:20) 11.94 (00:30) 0 0 0 0 0
30-10-2017 16.9 (14:10) 12.7 (00:00) 14.8 18.89 (07:50) 11.67 (23:40) 0 0 0 0 0
29-10-2017 20.6 (02:10) 13.2 (00:00) 16.9 20.28 (18:50) 11.39 (00:30) 0 0 0 0 0
28-10-2017 23.7 (01:20) 15.3 (00:00) 19.5 14.72 (23:30) 10.83 (23:40) 0 0 0 0 0
27-10-2017 28 (16:30) 19.6 (00:00) 23.8 10.28 (16:50) 6.11 (19:30) 0 0 0 0 0
26-10-2017 20.5 (18:10) 15.5 (00:00) 18 25.28 (03:50) 11.39 (04:10) 0 0 0 0 0
25-10-2017 22.5 (14:20) 14.1 (00:00) 18.3 14.17 (23:30) 9.17 (23:10) 0 0 0 0 0

Gráficas

Temp. máximas Temp. mínimas Temp. medias Precipitaciones Rachas de viento máximas Velocidades máximas media en intervalos de 10 minutos

Datos horarios

Fecha y hora oficial Temperatura (ºC) Velocidad del viento (km/h) Dirección del viento Racha (km/h) Dirección de racha Precipitación (mm) Presión (hPa) Tendencia (hPa) Humedad (%)
2017-11-23 23:00:00 12.9 14 Oeste 19 Oeste 1 986.3 1.1 94
2017-11-23 22:00:00 13.7 17 Oeste 25 Oeste 0 986.4 1.4 95
2017-11-23 21:00:00 13.9 14 Oeste 47 Sudoeste 0.8 986.2 1.7 95
2017-11-23 20:00:00 14.3 29 Sur 49 Sudoeste 0 985.2 1 95
2017-11-23 19:00:00 14.3 35 Sudoeste 52 Sudoeste 0 985 1.2 95
2017-11-23 18:00:00 14.3 32 Sudoeste 60 Sudoeste 0 984.5 0.6 95
2017-11-23 17:00:00 14.6 33 Sur 60 Sur 0 984.2 0.5 95
2017-11-23 16:00:00 14.7 32 Sur 62 Sur 0 983.8 0 95
2017-11-23 15:00:00 14.7 36 Sur 64 Sudoeste 0 983.9 0.1 95
2017-11-23 14:00:00 14.4 39 Sur 74 Sudoeste 0 983.7 0.3 95
2017-11-23 13:00:00 14.4 33 Sur 71 Sur 0 983.8 1 95
2017-11-23 12:00:00 14.5 35 Sur 67 Sur 0.2 983.8 1.5 94
2017-11-23 11:00:00 14.7 31 Sur 63 Sur 0 983.4 1.4 94
2017-11-23 10:00:00 14.4 35 Sur 58 Sudoeste 0 982.8 1.3 94
2017-11-23 09:00:00 14.1 40 Sudoeste 52 Sudoeste 0 982.3 1.3 94
2017-11-23 08:00:00 14 39 Sudoeste 50 Sudoeste 0 982 1.5 94
2017-11-23 07:00:00 14 37 Sudoeste 48 Sudoeste 0 981.5 1.5 94
2017-11-23 06:00:00 13.8 36 Sudoeste 43 Sudoeste 0 981 1.7 94
2017-11-23 05:00:00 13.9 32 Sudoeste 41 Sudoeste 0 980.5 1.6 94
2017-11-23 04:00:00 14 32 Sudoeste 47 Sudoeste 0 980 1.5 94
2017-11-23 03:00:00 13.8 33 Sudoeste 45 Oeste 0 979.3 1 93
2017-11-23 02:00:00 13.7 33 Sudoeste 46 Oeste 0 978.9 0.8 94
2017-11-23 01:00:00 14.3 36 Sudoeste 50 Sudoeste 0 978.5 0.6 94
2017-11-23 00:00:00 14.5 37 Sudoeste 54 Sudoeste 0 978.3 1.2 93
2017-11-22 23:00:00 14.4 40 Sudoeste 58 Sudoeste 0 978.1 1.7 93
2017-11-22 22:00:00 14.3 44 Sudoeste 63 Sudoeste 0 977.9 2.1 93
2017-11-22 21:00:00 15.1 52 Sudoeste 69 Sudoeste 0 977.1 2.2 93
2017-11-22 20:00:00 15 53 Sudoeste 75 Sudoeste 0 976.4 2.7 93
2017-11-22 19:00:00 15.2 57 Sudoeste 88 Sudoeste 0 975.8 3.1 94
2017-11-22 18:00:00 14.8 73 Sudoeste 111 Oeste 13.6 974.9 0.8 94
2017-11-22 17:00:00 14.3 81 Sudoeste 124 Sudoeste 7 973.7 -0.9 93
2017-11-22 16:00:00 14.2 65 Sudoeste 116 Sudoeste 0.2 972.7 -2.2 88
2017-11-22 15:00:00 14.2 54 Sur 118 Sudoeste 0 974.1 -3.6 85
2017-11-22 14:00:00 14 46 Sur 130 Sur 0 974.6 -2.9 85
2017-11-22 13:00:00 13.7 56 Sur 112 Sur 0.6 974.9 -3.6 89
2017-11-22 12:00:00 13.7 46 Sur 100 Sur 0 977.7 -0.7 91
2017-11-22 11:00:00 13.7 56 Sur 118 Sur 0 977.5 -0.8 89
2017-11-22 10:00:00 13.6 46 Sur 102 Sudoeste 0 978.5 -0.9 90
2017-11-22 09:00:00 13.3 46 Sur 99 Sur 0 978.4 -2.4 90
2017-11-22 08:00:00 13 50 Sur 102 Sur 0 978.3 -3.6 91
2017-11-22 07:00:00 13.3 47 Sur 92 Sur 0 979.4 -3.2 93
2017-11-22 06:00:00 13.2 44 Sur 89 Sur 0 980.8 -2.2 91
2017-11-22 05:00:00 13.5 40 Sur 79 Sur 0 981.9 -1.4 92
2017-11-22 04:00:00 13.6 46 Sur 82 Sudoeste 0 982.6 -1.8 93
2017-11-22 03:00:00 13.6 44 Sur 86 Sur 0 983 -1.9 93
2017-11-22 02:00:00 13.5 41 Sur 85 Sur 0 983.3 -2.2 92
2017-11-22 01:00:00 13.4 42 Sur 85 Sur 0 984.4 -1.7 92
2017-11-22 00:00:00 13.1 42 Sur 80 Sur 0 984.9 -1.9 92
2017-11-21 23:00:00 13.2 40 Sur 80 Sur 0 985.5 -1.5 92
2017-11-21 22:00:00 13.5 37 Sur 69 Sur 0 986.1 -1 92
2017-11-21 21:00:00 13.4 36 Sur 71 Sur 0 986.8 -0.9 92
2017-11-21 20:00:00 13.2 35 Sur 79 Sur 0 987 -1 90
2017-11-21 19:00:00 13 35 Sur 65 Sur 0 987.1 -1.2 88
2017-11-21 18:00:00 13.5 29 Sur 56 Sur 0 987.7 -0.9 83
2017-11-21 17:00:00 14.5 24 Sur 53 Sur 0 988 -1.2 73
2017-11-21 16:00:00 15.4 29 Sur 64 Sur 0 988.3 -1.8 61
2017-11-21 15:00:00 17 35 Sur 72 Sur 0 988.6 -2.2 43
2017-11-21 14:00:00 17.5 33 Sur 69 Sur 0 989.2 -2.1 36
2017-11-21 13:00:00 16.9 31 Sur 63 Sur 0 990.1 -1.4 39
2017-11-21 12:00:00 16 33 Sur 60 Sur 0 990.8 -0.7 43
2017-11-21 11:00:00 14.9 32 Sur 53 Sur 0 991.3 -0.1 48
2017-11-21 10:00:00 14.5 31 Sur 49 Sur 0 991.5 0.3 50
2017-11-21 09:00:00 13.5 31 Sur 51 Sur 0 991.5 0.1 55
2017-11-21 08:00:00 13.3 32 Sur 48 Sur 0 991.4 -0.1 56
2017-11-21 07:00:00 13.2 31 Sur 44 Sur 0 991.2 -0.7 58
2017-11-21 06:00:00 13.3 28 Sur 45 Sur 0 991.4 -0.7 61
2017-11-21 05:00:00 13.1 26 Sur 42 Sur 0 991.5 -0.6 61
2017-11-21 04:00:00 13.3 25 Sur 42 Sur 0 991.9 -0.5 56
2017-11-21 03:00:00 13.2 24 Sur 41 Sur 0 992.1 -0.4 57
2017-11-21 02:00:00 13.3 31 Sur 48 Sur 0 992.1 -0.9 59
2017-11-21 01:00:00 13.3 33 Sur 53 Sur 0 992.4 -0.5 54
2017-11-21 00:00:00 13.4 33 Sur 49 Sur 0 992.5 -0.8 57
2017-11-20 23:00:00 13.1 31 Sur 48 Sur 0 993 -0.3 61
2017-11-20 22:00:00 13.4 32 Sur 46 Sur 0 992.9 -0.5 62
2017-11-20 21:00:00 13.5 28 Sur 37 Sur 0 993.3 0.1 59
2017-11-20 20:00:00 13.5 26 Sur 36 Sur 0 993.3 0 67
2017-11-20 19:00:00 13.6 22 Sur 38 Sur 0 993.4 0.3 68
2017-11-20 18:00:00 13.8 21 Sur 35 Sur 0 993.2 -0.2 66
2017-11-20 17:00:00 15.1 20 Sur 35 Sur 0 993.3 -0.3 60
2017-11-20 16:00:00 15.3 18 Sur 36 Sur 0 993.1 -0.7 60
2017-11-20 15:00:00 15.7 19 Sur 38 Sur 0 993.4 -1.1 53
2017-11-20 14:00:00 15.6 20 Sur 43 Sur 0 993.6 -1 45
2017-11-20 13:00:00 16 24 Sur 42 Sur 0 993.8 -0.9 45
2017-11-20 12:00:00 15.7 23 Sur 37 Sur 0 994.5 0.2 47
2017-11-20 11:00:00 15.1 23 Sur 31 Sur 0 994.6 0.3 54
2017-11-20 10:00:00 14.8 19 Sur 27 Sudeste 0 994.7 0.4 58
2017-11-20 09:00:00 12.9 18 Sudeste 24 Sudeste 0 994.3 0.1 67
2017-11-20 08:00:00 12.9 13 Sur 17 Sur 0 994.3 0.7 67
2017-11-20 07:00:00 12.2 9 Sudoeste 14 Oeste 0 994.3 0.6 68
2017-11-20 06:00:00 13 9 Oeste 13 Sur 0 994.2 0.7 68
2017-11-20 05:00:00 13.9 13 Sur 15 Sur 0 993.6 -0.6 60
2017-11-20 04:00:00 14.2 6 Sur 11 Sudeste 0 993.7 -0.9 57
2017-11-20 03:00:00 14.2 8 Sur 9 Sur 0 993.5 -1 58
2017-11-20 02:00:00 13.9 0 Calma 6 Norte 0 994.2 -0.4 55
2017-11-20 01:00:00 13.9 4 Noroeste 6 Oeste 0 994.6 -0.1 60
2017-11-20 00:00:00 14.3 3 Oeste 5 Sudoeste 0 994.5 -0.1 53
2017-11-19 23:00:00 14.3 3 Sudoeste 6 Sur 0 994.6 0.1 56
2017-11-19 22:00:00 14.8 3 Sur 7 Sudeste 0 994.7 0.4 60
2017-11-19 21:00:00 14.4 3 Este 5 Sur 0 994.6 0.7 54
2017-11-19 20:00:00 14.1 2 Noroeste 3 Oeste 0 994.5 0.8 57
2017-11-19 19:00:00 14.2 2 Noroeste 5 Sudoeste 0 994.3 0.8 60
2017-11-19 18:00:00 15.6 3 Noroeste 7 Sudoeste 0 993.9 0 55
2017-11-19 17:00:00 17.2 2 Oeste 11 Sudoeste 0 993.7 -0.2 55
2017-11-19 16:00:00 17.7 5 Oeste 14 Noroeste 0 993.5 -0.9 58
2017-11-19 15:00:00 17 8 Noroeste 14 Noroeste 0 993.9 -0.8 54
2017-11-19 14:00:00 19.1 2 Oeste 11 Sudoeste 0 993.9 -0.5 59
2017-11-19 13:00:00 17.9 5 Sur 10 Sudoeste 0 994.4 0.1 61
2017-11-19 12:00:00 17.4 4 Sudoeste 10 Sudoeste 0 994.7 1 65
2017-11-19 11:00:00 15.9 0 Calma 5 Noroeste 0 994.4 1.2 52
2017-11-19 10:00:00 14.8 2 Noroeste 5 Noroeste 0 994.3 1.5 60
2017-11-19 09:00:00 13.4 6 Noroeste 11 Noroeste 0 993.7 1.1 63
2017-11-19 08:00:00 13.3 7 Noroeste 9 Noroeste 0 993.2 0.7 58
2017-11-19 07:00:00 13.6 5 Norte 8 Oeste 0 992.8 -0.2 57
2017-11-19 06:00:00 13.8 7 Oeste 8 Oeste 0 992.6 -0.2 57
2017-11-19 05:00:00 14.5 6 Oeste 8 Oeste 0 992.5 -0.4 59
2017-11-19 04:00:00 14.7 5 Sudoeste 8 Oeste 0 993 0 63
2017-11-19 03:00:00 15.1 6 Noroeste 8 Norte 0 992.8 0 61
2017-11-19 02:00:00 15.4 5 Noroeste 9 Norte 0 992.9 0 59
2017-11-19 01:00:00 15.4 6 Norte 7 Norte 0 993 0.1 57
2017-11-19 00:00:00 15.1 4 Noroeste 6 Oeste 0 992.8 -0.1 56
2017-11-18 23:00:00 15.3 0 Calma 10 Sudeste 0 992.9 0 56
2017-11-18 22:00:00 15.2 9 Sudeste 12 Sudeste 0 992.9 0.1 59
2017-11-18 21:00:00 15.4 8 Sudeste 12 Sudeste 0 992.9 0.1 59
2017-11-18 20:00:00 15.5 10 Sudeste 18 Sudeste 0 992.9 0.4 63
2017-11-18 19:00:00 15.5 5 Sudeste 13 Este 0 992.8 0.4 69
2017-11-18 18:00:00 15.3 12 Nordeste 14 Nordeste 0 992.8 0.2 69
2017-11-18 17:00:00 15.1 7 Nordeste 11 Norte 0 992.5 -0.5 61
2017-11-18 16:00:00 14.7 5 Nordeste 8 Nordeste 0 992.4 -0.9 60
2017-11-18 15:00:00 14.3 5 Nordeste 11 Sudoeste 0 992.6 -1 64
2017-11-18 14:00:00 17.2 3 Sur 10 Sur 0 993 -0.4 59
2017-11-18 13:00:00 16.3 4 Sur 13 Sur 0 993.3 0 58
2017-11-18 12:00:00 15.9 4 Oeste 9 Sudoeste 0 993.6 0.8 54
2017-11-18 11:00:00 14.7 3 Sur 10 Sur 0 993.4 1.1 65
2017-11-18 10:00:00 12.7 0 Calma 6 Sur 0 993.3 1.3 63
2017-11-18 09:00:00 12.2 3 Sur 12 Sudeste 0 992.8 0.8 60
2017-11-18 08:00:00 13 7 Sudeste 13 Sudeste 0 992.3 0.1 54
2017-11-18 07:00:00 12.8 8 Sudeste 25 Sudeste 0 992 -0.5 56
2017-11-18 06:00:00 13.8 10 Sudeste 18 Este 0 992 -0.5 49
2017-11-18 05:00:00 13.7 9 Sudeste 12 Sudeste 0 992.2 -0.5 52
2017-11-18 04:00:00 14.3 3 Nordeste 13 Norte 0 992.5 -0.7 48
2017-11-18 03:00:00 14.1 5 Norte 18 Este 0 992.5 -0.7 55
2017-11-18 02:00:00 13.9 13 Este 30 Este 0 992.7 -0.5 54
2017-11-18 01:00:00 14.2 4 Este 9 Este 0 993.2 0.3 55
2017-11-18 00:00:00 14.4 3 Sur 14 Este 0 993.2 0.5 55
2017-11-17 23:00:00 14.4 6 Sudeste 13 Sudeste 0 993.2 0.4 60
2017-11-17 22:00:00 14.1 7 Sudeste 21 Sudeste 0 992.9 -0.1 63
2017-11-17 21:00:00 14 14 Sudeste 34 Este 0 992.7 0.1 65
2017-11-17 20:00:00 13.3 25 Este 34 Este 0 992.8 0.2 73
2017-11-17 19:00:00 14 17 Este 23 Este 0 993 0.2 70
2017-11-17 18:00:00 14.3 18 Este 26 Este 0 992.6 -0.3 72
2017-11-17 17:00:00 15 14 Este 22 Este 0 992.6 -0.7 71
2017-11-17 16:00:00 14.9 10 Este 18 Este 0 992.8 -0.9 73
2017-11-17 15:00:00 15.2 13 Nordeste 18 Nordeste 0 992.9 -1.1 71
2017-11-17 14:00:00 15.2 7 Nordeste 11 Nordeste 0 993.3 -0.6 71
2017-11-17 13:00:00 16.1 3 Oeste 13 Sur 0 993.7 0 62
2017-11-17 12:00:00 15.8 7 Sudeste 17 Este 0 994 0.3 58
2017-11-17 11:00:00 14.1 12 Este 32 Este 0 993.9 0.7 60
2017-11-17 10:00:00 13.2 24 Este 35 Este 0 993.7 0.7 61
2017-11-17 09:00:00 12.4 22 Este 40 Este 0 993.7 0.8 62
2017-11-17 08:00:00 12.5 24 Este 43 Este 0 993.2 0.2 60
2017-11-17 07:00:00 12.4 31 Este 54 Este 0 993 -0.1 60
2017-11-17 06:00:00 12.3 31 Este 45 Este 0 992.9 -0.4 62
2017-11-17 05:00:00 12.3 24 Este 40 Este 0 993 -0.5 64
2017-11-17 04:00:00 12.4 30 Este 42 Este 0 993.1 -0.7 68
2017-11-17 03:00:00 13.1 24 Este 36 Este 0 993.3 -0.6 58
2017-11-17 02:00:00 13.8 23 Este 40 Este 0 993.5 -0.4 53
2017-11-17 01:00:00 13 24 Este 44 Este 0 993.8 0 60
2017-11-17 00:00:00 13.1 30 Este 45 Este 0 993.9 0.4 62
2017-11-16 23:00:00 12.5 28 Este 45 Este 0 993.9 0.2 70
2017-11-16 22:00:00 11.6 27 Este 42 Este 0 993.8 0.2 81
2017-11-16 21:00:00 11.2 28 Este 42 Este 0 993.5 0.3 86
2017-11-16 20:00:00 11.4 27 Nordeste 41 Este 0 993.7 0.6 85
2017-11-16 19:00:00 12.9 29 Este 43 Este 0 993.6 0.3 66
2017-11-16 18:00:00 12.8 23 Este 31 Este 0 993.2 -0.2 77
2017-11-16 17:00:00 13.9 17 Nordeste 26 Nordeste 0 993.1 -0.6 75
2017-11-16 16:00:00 14.6 14 Norte 23 Nordeste 0 993.3 -0.7 78
2017-11-16 15:00:00 14.5 13 Nordeste 21 Nordeste 0 993.4 -0.9 76
2017-11-16 14:00:00 14.1 8 Nordeste 10 Nordeste 0 993.7 -0.6 69
2017-11-16 13:00:00 14.6 4 Noroeste 11 Sur 0 994 0.1 68
2017-11-16 12:00:00 14.3 4 Este 16 Nordeste 0 994.3 1 67
2017-11-16 11:00:00 12 11 Nordeste 17 Nordeste 0 994.3 1.4 74
2017-11-16 10:00:00 11.1 14 Nordeste 17 Nordeste 0 993.9 1.3 81
2017-11-16 09:00:00 10.6 12 Nordeste 15 Norte 0 993.3 0.6 88
2017-11-16 08:00:00 10.4 14 Norte 15 Norte 0 992.9 0.7 90
2017-11-16 07:00:00 10.6 13 Norte 15 Norte 0 992.6 0.4 89
2017-11-16 06:00:00 11 9 Norte 13 Noroeste 0 992.7 0.3 83
2017-11-16 05:00:00 11.4 4 Norte 7 Nordeste 0 992.2 -0.1 85
2017-11-16 04:00:00 11.4 5 Nordeste 10 Noroeste 0 992.2 -0.2 84
2017-11-16 03:00:00 11.2 6 Noroeste 10 Noroeste 0 992.4 0 81
2017-11-16 02:00:00 11.3 7 Noroeste 9 Noroeste 0 992.3 -0.1 81
2017-11-16 01:00:00 11.4 7 Noroeste 11 Noroeste 0 992.4 0.1 81
2017-11-16 00:00:00 11.9 6 Oeste 8 Oeste 0 992.4 0.1 78
2017-11-15 23:00:00 11.7 2 Oeste 9 Sudoeste 0 992.4 0.2 77
2017-11-15 22:00:00 12 8 Sur 10 Sur 0 992.3 0.2 76
2017-11-15 21:00:00 11.6 6 Sudeste 9 Sur 0 992.3 0.4 76
2017-11-15 20:00:00 11.6 7 Sudeste 12 Sudeste 0 992.2 0.5 72
2017-11-15 19:00:00 11.8 9 Sudeste 13 Sur 0 992.1 0.5 71
2017-11-15 18:00:00 13.4 9 Sur 16 Sudoeste 0 991.9 0.1 64
2017-11-15 17:00:00 14.6 9 Sur 20 Sur 0 991.7 -0.3 64
2017-11-15 16:00:00 15 11 Sur 20 Sur 0 991.6 -0.9 65
2017-11-15 15:00:00 15.8 12 Sur 26 Sudoeste 0 991.8 -1.1 62
2017-11-15 14:00:00 15.4 13 Sur 24 Sur 0 992 -0.6 66
2017-11-15 13:00:00 14.9 16 Sur 25 Sur 0 992.5 0.1 65
2017-11-15 12:00:00 14.3 14 Sur 26 Sur 0 992.9 0.8 62
2017-11-15 11:00:00 13.4 15 Sudeste 24 Sudeste 0 992.6 1.2 68
2017-11-15 10:00:00 12.3 16 Sur 20 Sur 0 992.4 1.5 78
2017-11-15 09:00:00 10.9 12 Sur 24 Sur 0 992.1 1.3 73
2017-11-15 08:00:00 10.4 17 Sur 24 Sur 0 991.4 0.5 76
2017-11-15 07:00:00 11.2 18 Sur 23 Sur 0 990.9 -0.1 67
2017-11-15 06:00:00 11 15 Sur 20 Sur 0 990.8 -0.3 71
2017-11-15 05:00:00 11.2 10 Sur 13 Sudoeste 0 990.9 -0.2 69
2017-11-15 04:00:00 11.1 9 Sudoeste 10 Sudoeste 0 991 -0.6 69
2017-11-15 03:00:00 11.1 6 Sudoeste 11 Sur 0 991.1 -0.3 71
2017-11-15 02:00:00 10.7 6 Sudeste 9 Sudeste 0 991.1 -0.8 78
2017-11-15 01:00:00 10.9 7 Noroeste 10 Oeste 0 991.6 -0.3 80
2017-11-15 00:00:00 11.2 10 Sudeste 13 Sudeste 0 991.4 -0.3 70
2017-11-14 23:00:00 10.9 4 Noroeste 10 Oeste 0 991.9 -0.1 73
2017-11-14 22:00:00 12.1 7 Sur 13 Sudeste 0 991.9 -0.1 64
2017-11-14 21:00:00 12.3 9 Sudeste 18 Nordeste 0 991.7 -0.5 59
2017-11-14 20:00:00 11.5 15 Este 19 Este 0 992 -0.5 68
2017-11-14 19:00:00 11.5 6 Este 8 Este 0 992 -0.7 63
2017-11-14 18:00:00 12.1 5 Nordeste 9 Norte 0 992.2 -1 59
2017-11-14 17:00:00 12.5 4 Nordeste 17 Norte 0 992.5 -1.2 61
2017-11-14 16:00:00 12.2 10 Norte 23 Noroeste 0 992.7 -1.3 64
2017-11-14 15:00:00 13 12 Noroeste 22 Noroeste 0 993.2 -1.6 62
2017-11-14 14:00:00 13.4 8 Noroeste 15 Oeste 0 993.7 -1.3 61
2017-11-14 13:00:00 12.5 4 Norte 8 Nordeste 0 994 -0.9 51
2017-11-14 12:00:00 12.4 3 Nordeste 10 Sur 0 994.8 0.3 51
2017-11-14 11:00:00 11.6 5 Norte 17 Este 0 995 0.8 53
2017-11-14 10:00:00 11 14 Sudeste 24 Este 0 994.9 0.7 54
2017-11-14 09:00:00 9.9 16 Este 29 Este 0 994.5 0.5 56
2017-11-14 08:00:00 9.4 22 Este 33 Este 0 994.2 0.7 57
2017-11-14 07:00:00 8.8 24 Este 37 Este 0 994.2 0.1 61
2017-11-14 06:00:00 8.8 30 Este 54 Este 0 994 -0.4 61
2017-11-14 05:00:00 8.5 40 Este 64 Este 0 993.5 -1.1 63
2017-11-14 04:00:00 8.8 38 Este 60 Este 0 994.1 -1.5 62
2017-11-14 03:00:00 8.9 39 Este 66 Este 0 994.4 -1.5 63
2017-11-14 02:00:00 9.2 41 Este 62 Este 0 994.6 -1.7 61
2017-11-14 01:00:00 9.2 31 Este 61 Este 0 995.6 -1 63
2017-11-14 00:00:00 9.3 24 Este 67 Este 0 995.9 -0.9 63
2017-11-13 23:00:00 9.7 30 Este 58 Este 0 996.3 -0.5 61
2017-11-13 22:00:00 9.2 26 Este 48 Nordeste 0 996.6 -0.5 68
2017-11-13 21:00:00 9.2 24 Nordeste 57 Nordeste 0 996.8 -0.3 72
2017-11-13 20:00:00 9.9 28 Nordeste 45 Nordeste 0 996.8 -0.3 72
2017-11-13 19:00:00 10.4 27 Nordeste 46 Nordeste 0 997.1 0 76
2017-11-13 18:00:00 11 25 Nordeste 41 Nordeste 0 997.1 -0.4 73
2017-11-13 17:00:00 12.2 19 Nordeste 45 Nordeste 0 997.1 -0.8 65
2017-11-13 16:00:00 12.8 19 Nordeste 45 Este 0 997.1 -1.2 64
2017-11-13 15:00:00 13.1 18 Nordeste 42 Nordeste 0 997.5 -1.6 63
2017-11-13 14:00:00 13 19 Nordeste 49 Este 0 997.9 -1.1 64
2017-11-13 13:00:00 12.7 24 Nordeste 49 Este 0 998.3 -0.7 65
2017-11-13 12:00:00 12.2 18 Nordeste 42 Nordeste 0 999.1 0.7 68
2017-11-13 11:00:00 11 17 Nordeste 35 Nordeste 0 999 1.1 80
2017-11-13 10:00:00 9.8 17 Nordeste 48 Este 0 999 1.4 84
2017-11-13 09:00:00 9.4 22 Nordeste 42 Nordeste 0 998.4 0.8 88
2017-11-13 08:00:00 9.5 23 Nordeste 37 Nordeste 0 997.9 0.2 89
2017-11-13 07:00:00 9.7 18 Nordeste 34 Este 0 997.6 -0.2 90
2017-11-13 06:00:00 10.2 24 Este 42 Este 0 997.6 -0.4 91
2017-11-13 05:00:00 10.8 30 Este 46 Nordeste 0 997.7 -0.5 90
2017-11-13 04:00:00 11.4 25 Nordeste 42 Nordeste 0 997.8 -0.4 92
2017-11-13 03:00:00 12 19 Nordeste 34 Nordeste 0 998 -0.3 94
2017-11-13 02:00:00 12.5 22 Nordeste 29 Nordeste 0 998.2 0.1 94
2017-11-13 01:00:00 12.4 20 Nordeste 28 Nordeste 0 998.2 0.4 94
2017-11-13 00:00:00 12.4 22 Nordeste 34 Nordeste 0 998.3 0.4 94
2017-11-12 23:00:00 12.2 22 Nordeste 31 Nordeste 0 998.1 0.3 94
2017-11-12 22:00:00 12.2 19 Nordeste 28 Nordeste 0 997.8 0.4 94
2017-11-12 21:00:00 12.4 21 Nordeste 27 Nordeste 0 997.9 0.6 95
2017-11-12 20:00:00 12.7 17 Nordeste 23 Nordeste 0 997.8 0.4 95
2017-11-12 19:00:00 13 13 Nordeste 28 Norte 0.2 997.4 0.2 95
2017-11-12 18:00:00 13.2 15 Norte 25 Norte 0 997.3 -0.3 94
2017-11-12 17:00:00 13.4 7 Norte 17 Nordeste 0 997.4 -0.7 94
2017-11-12 16:00:00 13.7 11 Nordeste 33 Norte 0.2 997.2 -1.3 94
2017-11-12 15:00:00 13.8 15 Noroeste 31 Noroeste 0.2 997.6 -1.3 94
2017-11-12 14:00:00 13.5 16 Oeste 24 Noroeste 0.2 998.1 -1.1 93
2017-11-12 13:00:00 13.5 12 Noroeste 26 Noroeste 0 998.5 -0.7 92
2017-11-12 12:00:00 13.6 11 Noroeste 15 Noroeste 0 998.9 -0.3 90
2017-11-12 11:00:00 12.8 5 Noroeste 26 Oeste 0 999.2 0.1 90
2017-11-12 10:00:00 13.3 8 Noroeste 22 Norte 0 999.2 -0.1 79
2017-11-12 09:00:00 12.9 12 Noroeste 38 Norte 0 999.2 -0.3 81
2017-11-12 08:00:00 12.7 18 Norte 32 Norte 0 999.1 -0.4 82
2017-11-12 07:00:00 12.3 16 Norte 23 Norte 0 999.3 -0.5 89
2017-11-12 06:00:00 12.4 14 Norte 26 Norte 0 999.5 -0.5 88
2017-11-12 05:00:00 12.4 10 Norte 21 Norte 0 999.5 -1.1 86
2017-11-12 04:00:00 12.3 14 Norte 19 Norte 0 999.8 -1.3 85
2017-11-12 03:00:00 11.9 15 Norte 23 Norte 0 1000 -1.3 91
2017-11-12 02:00:00 12 15 Norte 22 Norte 0 1000.6 -0.9 92
2017-11-12 01:00:00 12.2 15 Norte 26 Norte 0 1001.1 -0.7 90
2017-11-12 00:00:00 12.2 17 Norte 29 Norte 0 1001.3 -0.5 90
2017-11-11 23:00:00 11.9 21 Norte 29 Norte 0 1001.5 -0.3 93
2017-11-11 22:00:00 12 18 Norte 27 Norte 0 1001.8 0.1 94
2017-11-11 21:00:00 11.9 13 Norte 19 Nordeste 0 1001.8 0 94
2017-11-11 20:00:00 12 13 Nordeste 25 Norte 0 1001.8 -0.2 94
2017-11-11 19:00:00 12.2 19 Norte 32 Norte 0 1001.7 -0.4 93
2017-11-11 18:00:00 12.6 16 Norte 31 Norte 0 1001.8 -0.6 91
2017-11-11 17:00:00 13.4 15 Norte 32 Norte 0 1002 -1.1 86
2017-11-11 16:00:00 13.6 21 Norte 36 Norte 0 1002.1 -1.7 86
2017-11-11 15:00:00 13.5 22 Norte 35 Norte 0 1002.4 -2.1 86
2017-11-11 14:00:00 13.4 19 Norte 41 Norte 0 1003.1 -1.5 88
2017-11-11 13:00:00 13.1 19 Norte 32 Norte 0 1003.8 -0.8 88
2017-11-11 12:00:00 13 18 Norte 29 Nordeste 0 1004.5 0 89
2017-11-11 11:00:00 13 12 Nordeste 25 Nordeste 0 1004.6 0.2 87
2017-11-11 10:00:00 12.2 17 Nordeste 27 Nordeste 0 1004.6 0.1 90
2017-11-11 09:00:00 11.7 22 Nordeste 28 Nordeste 0 1004.5 -0.2 86
2017-11-11 08:00:00 12.1 19 Nordeste 31 Nordeste 0 1004.4 -0.2 77
2017-11-11 07:00:00 11.9 19 Nordeste 29 Nordeste 0 1004.5 -0.2 82
2017-11-11 06:00:00 11.9 18 Nordeste 28 Nordeste 0 1004.7 -0.5 77
2017-11-11 05:00:00 12.2 24 Nordeste 41 Nordeste 0 1004.6 -1.1 76
2017-11-11 04:00:00 11.9 28 Nordeste 38 Nordeste 0 1004.7 -1.4 83
2017-11-11 03:00:00 12 24 Nordeste 32 Nordeste 0 1005.2 -1.1 86
2017-11-11 02:00:00 12 21 Nordeste 39 Nordeste 0 1005.7 -0.9 88
2017-11-11 01:00:00 12.3 21 Nordeste 29 Norte 0 1006.1 -0.7 88
2017-11-11 00:00:00 12.2 22 Nordeste 32 Nordeste 0 1006.3 -0.6 86
2017-11-10 23:00:00 12.2 25 Nordeste 36 Nordeste 0 1006.6 0 86
2017-11-10 22:00:00 12.2 20 Nordeste 34 Nordeste 0 1006.8 0.3 89
2017-11-10 21:00:00 12.2 20 Nordeste 32 Nordeste 0 1006.9 0.6 90
2017-11-10 20:00:00 12.3 22 Nordeste 36 Nordeste 0 1006.6 0.5 87
2017-11-10 19:00:00 12.3 22 Nordeste 33 Nordeste 0 1006.5 0.7 86
2017-11-10 18:00:00 12.9 20 Nordeste 37 Nordeste 0 1006.3 0.2 83
2017-11-10 17:00:00 13.3 19 Nordeste 45 Norte 0 1006.1 -0.2 85
2017-11-10 16:00:00 13.2 24 Norte 40 Norte 0 1005.8 -1 84
2017-11-10 15:00:00 13.3 26 Nordeste 52 Nordeste 0 1006.1 -1.2 85
2017-11-10 14:00:00 13.4 25 Norte 49 Nordeste 0 1006.3 -1 83
2017-11-10 13:00:00 13.2 29 Nordeste 46 Nordeste 0 1006.8 -0.1 89
2017-11-10 12:00:00 12.7 30 Nordeste 46 Nordeste 0.2 1007.3 0.6 94
2017-11-10 11:00:00 12.9 23 Nordeste 43 Nordeste 0 1007.3 1.2 93
2017-11-10 10:00:00 12.6 28 Nordeste 41 Nordeste 0 1006.9 1.1 94
2017-11-10 09:00:00 12.4 25 Nordeste 42 Nordeste 0 1006.7 1.1 94
2017-11-10 08:00:00 12.1 27 Nordeste 42 Nordeste 0 1006.1 0.7 94
2017-11-10 07:00:00 12.4 27 Nordeste 40 Norte 0 1005.8 0.1 95
2017-11-10 06:00:00 12.4 23 Nordeste 34 Nordeste 0 1005.6 -0.1 95
2017-11-10 05:00:00 12.1 25 Nordeste 33 Nordeste 0 1005.4 -0.3 95
2017-11-10 04:00:00 12.3 16 Nordeste 33 Norte 0 1005.7 -0.3 95
2017-11-10 03:00:00 12.1 25 Nordeste 39 Nordeste 0 1005.7 -0.3 94
2017-11-10 02:00:00 11.8 27 Nordeste 39 Nordeste 0 1005.7 -0.1 93
2017-11-10 01:00:00 11.6 24 Nordeste 34 Nordeste 0 1006 0.5 93
2017-11-10 00:00:00 11.4 22 Nordeste 36 Nordeste 0 1006 0.8 92
2017-11-09 23:00:00 11.3 23 Nordeste 42 Nordeste 0 1005.8 1 92
2017-11-09 22:00:00 11.5 31 Nordeste 44 Nordeste 0 1005.5 1.2 91
2017-11-09 21:00:00 11.4 30 Nordeste 45 Nordeste 0 1005.2 1.1 91
2017-11-09 20:00:00 11.2 27 Nordeste 42 Nordeste 0 1004.8 1.4 93
2017-11-09 19:00:00 11.3 27 Nordeste 43 Nordeste 0 1004.3 1.1 94
2017-11-09 18:00:00 11.9 24 Nordeste 40 Nordeste 0 1004.1 0.9 90
2017-11-09 17:00:00 12.6 22 Nordeste 46 Nordeste 0 1003.4 0 91
2017-11-09 16:00:00 13 27 Nordeste 50 Norte 0 1003.2 -0.5 90
2017-11-09 15:00:00 12.4 26 Nordeste 41 Norte 0 1003.2 -0.8 94
2017-11-09 14:00:00 12.5 21 Nordeste 39 Norte 0.2 1003.4 -0.6 94
2017-11-09 13:00:00 12.6 28 Norte 45 Norte 0 1003.7 -0.3 93
2017-11-09 12:00:00 12.5 22 Norte 41 Norte 0 1004 0.2 93
2017-11-09 11:00:00 11.9 23 Nordeste 41 Nordeste 0 1004 0.5 94
2017-11-09 10:00:00 11.3 32 Nordeste 44 Nordeste 0 1004 0.7 92
2017-11-09 09:00:00 10.5 18 Nordeste 26 Nordeste 0 1003.8 0.8 94
2017-11-09 08:00:00 10.6 17 Nordeste 30 Nordeste 1 1003.5 0.5 93
2017-11-09 07:00:00 10.8 15 Nordeste 24 Nordeste 0 1003.3 0.6 93
2017-11-09 06:00:00 10.5 18 Nordeste 24 Nordeste 0 1003 0.2 93
2017-11-09 05:00:00 10.5 22 Nordeste 33 Nordeste 0 1003 0 88
2017-11-09 04:00:00 10.1 25 Nordeste 40 Nordeste 0.6 1002.7 -0.3 89
2017-11-09 03:00:00 10.4 26 Nordeste 34 Nordeste 0 1002.8 -0.2 83
2017-11-09 02:00:00 10.7 22 Nordeste 31 Nordeste 0 1003 0 81
2017-11-09 01:00:00 10.9 24 Nordeste 36 Nordeste 0 1003 0.2 81
2017-11-09 00:00:00 10.7 29 Nordeste 39 Nordeste 0 1003 0.5 81
2017-11-08 23:00:00 10.6 28 Nordeste 38 Nordeste 0 1003 0.5 82
2017-11-08 22:00:00 10.7 30 Nordeste 42 Nordeste 0 1002.8 0.6 80
2017-11-08 21:00:00 10.5 28 Nordeste 36 Nordeste 0 1002.5 0.9 86
2017-11-08 20:00:00 10.3 25 Nordeste 33 Nordeste 0 1002.5 1.1 87
2017-11-08 19:00:00 10.2 20 Nordeste 45 Norte 0 1002.2 0.8 85
2017-11-08 18:00:00 11 28 Nordeste 49 Nordeste 0 1001.6 0.1 78
2017-11-08 17:00:00 11.9 23 Norte 55 Norte 0 1001.4 -0.4 81
2017-11-08 16:00:00 12.3 23 Nordeste 51 Nordeste 0 1001.4 -0.6 73
2017-11-08 15:00:00 12 22 Nordeste 42 Norte 0 1001.5 -0.8 73
2017-11-08 14:00:00 12.7 23 Nordeste 50 Norte 0 1001.8 -0.5 67
2017-11-08 13:00:00 12.3 28 Norte 50 Norte 0 1002 0 67
2017-11-08 12:00:00 12.2 28 Norte 57 Norte 0 1002.3 0.6 70
2017-11-08 11:00:00 11.8 21 Norte 40 Norte 0 1002.3 1.1 71
2017-11-08 10:00:00 11.2 26 Norte 41 Norte 0 1002 1 68
2017-11-08 09:00:00 10.6 30 Nordeste 42 Nordeste 0 1001.7 1 71
2017-11-08 08:00:00 10.3 30 Nordeste 41 Nordeste 0 1001.2 0.6 70
2017-11-08 07:00:00 10.1 30 Nordeste 42 Nordeste 0 1001 0.2 70
2017-11-08 06:00:00 10.4 33 Nordeste 43 Nordeste 0 1000.7 0.2 68
2017-11-08 05:00:00 10.2 32 Nordeste 41 Nordeste 0 1000.6 0.1 66
2017-11-08 04:00:00 10.1 30 Nordeste 42 Nordeste 0 1000.8 0.5 68
2017-11-08 03:00:00 10.3 32 Nordeste 45 Nordeste 0 1000.5 0.5 63
2017-11-08 02:00:00 10.7 27 Nordeste 46 Nordeste 0 1000.5 0.9 64
2017-11-08 01:00:00 10.7 29 Nordeste 46 Nordeste 0 1000.3 1.3 71
2017-11-08 00:00:00 10.6 29 Nordeste 54 Nordeste 0 1000 1 74
2017-11-07 23:00:00 11.3 35 Nordeste 56 Nordeste 0 999.6 1.1 71
2017-11-07 22:00:00 11 35 Norte 54 Norte 0 999 1 79
2017-11-07 21:00:00 11.2 29 Nordeste 48 Nordeste 0 999 1.5 78
2017-11-07 20:00:00 11.4 30 Nordeste 50 Norte 0 998.5 1.4 75
2017-11-07 19:00:00 11.8 34 Norte 59 Nordeste 0 998 1.1 75
2017-11-07 18:00:00 12.1 32 Nordeste 60 Nordeste 0 997.5 1.3 74
2017-11-07 17:00:00 12.8 23 Nordeste 54 Norte 0 997.1 0.8 75
2017-11-07 16:00:00 12 30 Nordeste 60 Nordeste 0 996.9 0.6 80
2017-11-07 15:00:00 12.5 32 Nordeste 57 Nordeste 0.2 996.2 -0.5 80
2017-11-07 14:00:00 11.8 28 Nordeste 46 Norte 0.2 996.3 0.6 89
2017-11-07 13:00:00 12.1 26 Nordeste 50 Nordeste 0 996.3 0.8 87
2017-11-07 12:00:00 11.3 12 Noroeste 28 Oeste 0.4 996.7 1.3 87
2017-11-07 11:00:00 12.4 17 Sur 24 Sur 0 995.7 0.7 77
2017-11-07 10:00:00 12 11 Sur 18 Sur 0 995.5 0.6 75
2017-11-07 09:00:00 11.6 8 Sur 14 Oeste 0 995.4 0.7 75
2017-11-07 08:00:00 11.1 5 Sur 7 Sur 0 995 0.2 76
2017-11-07 07:00:00 11 3 Norte 9 Nordeste 0 994.9 0 75
2017-11-07 06:00:00 11.1 9 Nordeste 24 Norte 0 994.7 -0.4 74
2017-11-07 05:00:00 11.5 17 Norte 28 Nordeste 0 994.8 -0.4 73
2017-11-07 04:00:00 10.6 21 Nordeste 31 Nordeste 0 994.9 -0.9 76
2017-11-07 03:00:00 10.5 25 Nordeste 37 Nordeste 0 995.1 -0.9 76
2017-11-07 02:00:00 10.2 30 Nordeste 36 Nordeste 0 995.2 -1.4 78
2017-11-07 01:00:00 10.4 24 Nordeste 35 Nordeste 0 995.8 -0.7 76
2017-11-07 00:00:00 10.6 23 Nordeste 36 Nordeste 0 996 -0.6 82
2017-11-06 23:00:00 10.6 25 Nordeste 43 Nordeste 0 996.6 -0.4 83
2017-11-06 22:00:00 11.2 35 Nordeste 53 Nordeste 0 996.5 -0.4 83
2017-11-06 21:00:00 11 35 Nordeste 50 Nordeste 0 996.6 -0.4 81
2017-11-06 20:00:00 10.9 32 Nordeste 42 Nordeste 0 997 -0.3 82
2017-11-06 19:00:00 11.1 31 Nordeste 38 Nordeste 0 996.9 -0.7 81
2017-11-06 18:00:00 11.9 26 Nordeste 39 Norte 0 997 -1.1 76
2017-11-06 17:00:00 13.1 24 Norte 40 Norte 0 997.3 -1.6 75
2017-11-06 16:00:00 13.5 20 Norte 35 Norte 0 997.6 -2.3 71
2017-11-06 15:00:00 13.3 20 Norte 33 Norte 0 998.1 -2.5 76
2017-11-06 14:00:00 13.2 18 Norte 30 Norte 0 998.9 -2.2 78
2017-11-06 13:00:00 13.7 10 Nordeste 25 Este 0 999.9 -1.2 66
2017-11-06 12:00:00 13.1 13 Nordeste 26 Este 0 1000.6 -0.5 72
2017-11-06 11:00:00 12.4 15 Este 31 Este 0 1001.1 0.3 72
2017-11-06 10:00:00 11.5 17 Este 28 Nordeste 0 1001.1 0.2 77
2017-11-06 09:00:00 10.6 21 Nordeste 28 Este 0 1001.1 0 79
2017-11-06 08:00:00 10.1 22 Este 32 Nordeste 0 1000.8 -0.4 82
2017-11-06 07:00:00 10.5 18 Este 27 Este 0 1000.9 -0.6 81
2017-11-06 06:00:00 10.4 19 Este 26 Nordeste 0 1001.1 -0.7 83
2017-11-06 05:00:00 11 22 Nordeste 31 Nordeste 0 1001.2 -1 82
2017-11-06 04:00:00 10.7 16 Nordeste 30 Nordeste 0 1001.5 -0.9 80
2017-11-06 03:00:00 10.7 20 Nordeste 29 Nordeste 0 1001.8 -0.5 78
2017-11-06 02:00:00 10.5 21 Nordeste 33 Nordeste 0 1002.2 0 83
2017-11-06 01:00:00 10.6 21 Nordeste 35 Nordeste 0 1002.4 0.3 84
2017-11-06 00:00:00 10.9 24 Nordeste 35 Nordeste 0 1002.3 0.3 82
2017-11-05 23:00:00 11.2 28 Nordeste 38 Nordeste 0 1002.2 0.1 81
2017-11-05 22:00:00 11 29 Nordeste 38 Nordeste 0 1002.1 0.5 82
2017-11-05 21:00:00 10.8 21 Nordeste 28 Nordeste 0 1002 0.7 86
2017-11-05 20:00:00 11 19 Nordeste 36 Nordeste 0 1002.1 0.9 84
2017-11-05 19:00:00 10.9 27 Nordeste 40 Nordeste 0 1001.6 0.6 78
2017-11-05 18:00:00 12 24 Nordeste 48 Nordeste 0 1001.3 0.3 81
2017-11-05 17:00:00 12.4 23 Norte 47 Norte 0 1001.2 -0.1 80
2017-11-05 16:00:00 13.2 22 Norte 41 Norte 0 1001 -0.4 69
2017-11-05 15:00:00 13.2 24 Norte 53 Norte 0 1001 -0.7 71
2017-11-05 14:00:00 13 21 Norte 47 Norte 0 1001.3 -0.1 74
2017-11-05 13:00:00 13 26 Norte 43 Norte 0 1001.4 0.5 68
2017-11-05 12:00:00 12.7 21 Norte 41 Nordeste 0 1001.7 1.4 74
2017-11-05 11:00:00 12.2 19 Norte 30 Nordeste 0 1001.4 1.9 74
2017-11-05 10:00:00 11.2 21 Nordeste 38 Nordeste 0 1000.9 2 77
2017-11-05 09:00:00 10.9 29 Nordeste 53 Norte 0 1000.3 1.7 81
2017-11-05 08:00:00 11.3 25 Norte 40 Norte 0 999.5 1.5 71
2017-11-05 07:00:00 11.1 30 Nordeste 44 Nordeste 0 998.9 1 74
2017-11-05 06:00:00 11.2 27 Nordeste 40 Nordeste 0 998.6 0.9 73
2017-11-05 05:00:00 11.5 28 Nordeste 42 Nordeste 0 998 0.6 68
2017-11-05 04:00:00 11.3 29 Nordeste 42 Nordeste 0 997.9 0.9 70
2017-11-05 03:00:00 11.9 28 Nordeste 49 Nordeste 0 997.7 1.4 68
2017-11-05 02:00:00 11.6 31 Nordeste 56 Nordeste 0 997.4 1.7 70
2017-11-05 01:00:00 12 35 Norte 59 Norte 0 997 2 69
2017-11-05 00:00:00 12.1 32 Nordeste 57 Norte 0 996.3 2.2 72
2017-11-04 23:00:00 12.2 33 Norte 60 Nordeste 0 995.7 2.2 74
2017-11-04 22:00:00 12.3 34 Norte 68 Norte 0 995 2.4 67
2017-11-04 21:00:00 12.5 39 Norte 72 Norte 0 994.1 2.6 70
2017-11-04 20:00:00 12.1 38 Nordeste 64 Nordeste 0 993.5 3.3 80
2017-11-04 19:00:00 12.4 34 Norte 68 Norte 0 992.6 3.6 80
2017-11-04 18:00:00 12.5 33 Nordeste 68 Nordeste 0 991.5 3.4 82
2017-11-04 17:00:00 11.5 48 Norte 77 Norte 0 990.2 2.2 94
2017-11-04 16:00:00 11.8 48 Norte 81 Nordeste 0 989 1.2 95
2017-11-04 15:00:00 13.2 36 Norte 63 Norte 0 988.1 0.5 93
2017-11-04 14:00:00 14.6 24 Norte 41 Norte 0 988 1.1 91
2017-11-04 13:00:00 14.3 24 Norte 42 Norte 0 987.8 1.7 90
2017-11-04 12:00:00 14.5 23 Norte 44 Norte 0 987.6 2.6 90
2017-11-04 11:00:00 14.1 21 Norte 35 Norte 0 986.9 2.9 92
2017-11-04 10:00:00 13.5 28 Nordeste 40 Nordeste 0 986.1 2.7 92
2017-11-04 09:00:00 13.1 32 Nordeste 42 Nordeste 0 985 2 93
2017-11-04 08:00:00 12.4 30 Nordeste 43 Nordeste 0 984 1.4 89
2017-11-04 07:00:00 12.8 30 Nordeste 44 Nordeste 0 983.4 1.3 84
2017-11-04 06:00:00 13 28 Este 38 Nordeste 0 983 0.9 83
2017-11-04 05:00:00 12.4 22 Este 29 Nordeste 0 982.6 0.3 88
2017-11-04 04:00:00 12 19 Este 27 Este 0 982.1 -0.3 91
2017-11-04 03:00:00 13.4 13 Nordeste 16 Nordeste 0 982.1 -0.2 82
2017-11-04 02:00:00 13.2 12 Nordeste 14 Nordeste 0 982.3 0 84
2017-11-04 01:00:00 12.7 9 Este 21 Sudeste 0 982.4 0.2 89
2017-11-04 00:00:00 12.5 13 Sudeste 21 Sudeste 0.4 982.3 0.2 93
2017-11-03 23:00:00 12.6 9 Sudeste 33 Sudeste 0.2 982.3 0.3 94
2017-11-03 22:00:00 12.2 11 Sudeste 33 Sur 4.2 982.2 0.4 94
2017-11-03 21:00:00 12.6 15 Este 28 Este 6.4 982.1 0.9 94
2017-11-03 20:00:00 13 12 Este 31 Sudeste 7.6 982 0.8 93
2017-11-03 19:00:00 13.2 14 Sudeste 27 Sudeste 2.6 981.8 0.2 92
2017-11-03 18:00:00 13.5 12 Sudeste 36 Sudeste 3.6 981.2 -0.5 93
2017-11-03 17:00:00 13.6 19 Sudeste 48 Sudeste 1 981.2 -0.7 93
2017-11-03 16:00:00 13.7 17 Sudeste 49 Sur 0 981.6 -0.6 91
2017-11-03 15:00:00 14.6 22 Sur 59 Sur 0 981.7 -1 86
2017-11-03 14:00:00 14.8 24 Sur 54 Sur 0 981.9 -0.6 80
2017-11-03 13:00:00 15.6 26 Sur 54 Sur 0 982.2 -0.1 75
2017-11-03 12:00:00 16 23 Sur 46 Sur 0 982.7 0.5 71
2017-11-03 11:00:00 14.7 15 Sudeste 40 Sudeste 0 982.5 0.5 75
2017-11-03 10:00:00 13.9 16 Sudeste 42 Sudeste 0 982.3 0.4 75
2017-11-03 09:00:00 12.6 21 Sudeste 45 Sudeste 0 982.2 0 83
2017-11-03 08:00:00 12.7 18 Sudeste 53 Sur 0 982 -0.1 85
2017-11-03 07:00:00 12.4 22 Sudeste 52 Sur 0 981.9 -0.8 88
2017-11-03 06:00:00 12.5 24 Sur 50 Sur 0.2 982.2 -0.7 89
2017-11-03 05:00:00 13.9 23 Sur 40 Sur 0 982.1 -1.3 92
2017-11-03 04:00:00 13.6 24 Sur 46 Sur 0.4 982.7 -1.5 91
2017-11-03 03:00:00 13.3 26 Sur 52 Sur 0 982.9 -1.3 92
2017-11-03 02:00:00 13.4 26 Sur 46 Sur 0.2 983.4 -1.1 92
2017-11-03 01:00:00 13.5 24 Sur 51 Sur 0 984.2 -0.5 92
2017-11-03 00:00:00 13.5 24 Sur 46 Sur 0 984.2 -0.5 93
2017-11-02 23:00:00 14.1 21 Sur 46 Sur 0 984.5 0.1 94
2017-11-02 22:00:00 13.3 17 Sur 44 Sudoeste 4.2 984.7 0.7 92
2017-11-02 21:00:00 12.9 19 Sur 47 Sur 0.2 984.7 0.9 89
2017-11-02 20:00:00 13.1 24 Sur 50 Sudoeste 0.2 984.4 0.7 91
2017-11-02 19:00:00 13.2 26 Sur 54 Sur 0 984 0.3 84
2017-11-02 18:00:00 14.2 27 Sur 48 Sudoeste 0 983.8 0.1 82
2017-11-02 17:00:00 14.7 23 Sur 56 Sur 0 983.7 -0.4 83
2017-11-02 16:00:00 14.6 30 Sur 65 Sur 0 983.7 -1 94
2017-11-02 15:00:00 14.8 32 Sur 64 Sur 0 983.7 -1.2 93
2017-11-02 14:00:00 15.3 30 Sur 59 Sur 0 984.1 -0.7 90
2017-11-02 13:00:00 15.1 30 Sur 63 Sur 0 984.7 -0.1 90
2017-11-02 12:00:00 14.5 30 Sur 62 Sur 0 984.9 0.4 93
2017-11-02 11:00:00 14 33 Sur 69 Sur 0 984.8 0.4 93
2017-11-02 10:00:00 13 27 Sudeste 55 Sur 0 984.8 0.4 95
2017-11-02 09:00:00 12.3 22 Sudeste 50 Sudeste 5.4 984.5 -0.1 95
2017-11-02 08:00:00 12.4 22 Sudeste 48 Sudeste 5 984.4 -0.6 95
2017-11-02 07:00:00 12.7 28 Sur 51 Sudoeste 15.6 984.4 -1 94
2017-11-02 06:00:00 14.5 21 Sudoeste 45 Sur 15.4 984.6 -0.7 94
2017-11-02 05:00:00 13.3 22 Sur 48 Sudoeste 6 985 -0.6 94
2017-11-02 04:00:00 14.5 24 Sudoeste 48 Sur 1.4 985.4 -0.4 94
2017-11-02 03:00:00 15.1 27 Sur 58 Sudoeste 0 985.3 -0.7 94
2017-11-02 02:00:00 15 28 Sur 55 Sur 0 985.6 -0.6 93
2017-11-02 01:00:00 14.9 27 Sur 55 Sudoeste 0 985.8 -0.4 92
2017-11-02 00:00:00 14.9 27 Sur 54 Sur 0 986 0.2 92
2017-11-01 23:00:00 15 25 Sur 51 Sur 0.2 986.2 0.9 93
2017-11-01 22:00:00 15.1 26 Sur 74 Sur 0.2 986.2 0.7 93
2017-11-01 21:00:00 15.2 38 Sur 77 Sur 0.6 985.8 0.1 92
2017-11-01 20:00:00 15.6 41 Sur 75 Sur 0 985.3 -0.7 88
2017-11-01 19:00:00 14.7 35 Sur 60 Sur 0 985.5 -1 93
2017-11-01 18:00:00 14.8 33 Sur 61 Sur 0 985.7 -1 93
2017-11-01 17:00:00 14.5 24 Sur 57 Sur 0 986 -1.2 92
2017-11-01 16:00:00 14.7 26 Sur 58 Sur 0 986.5 -1.3 94
2017-11-01 15:00:00 14.6 26 Sur 60 Sudoeste 0 986.7 -1.2 94
2017-11-01 14:00:00 14.7 28 Sur 58 Sur 0 987.2 -0.7 94
2017-11-01 13:00:00 14.7 32 Sur 59 Sudoeste 0 987.8 -0.1 93
2017-11-01 12:00:00 14.9 35 Sur 72 Sur 0 987.9 0.2 91
2017-11-01 11:00:00 14.9 35 Sur 67 Sur 0 987.9 0.6 90
2017-11-01 10:00:00 14.8 37 Sur 71 Sur 0 987.9 0.9 89
2017-11-01 09:00:00 14.8 34 Sur 69 Sur 0 987.7 0.5 92
2017-11-01 08:00:00 14.6 30 Sur 65 Sur 0 987.3 -0.3 92
2017-11-01 07:00:00 14.7 29 Sur 60 Sur 0 987 -0.9 90
2017-11-01 06:00:00 14.6 27 Sur 54 Sur 0 987.2 -1 90
2017-11-01 05:00:00 14.7 29 Sur 55 Sur 0 987.6 -0.4 82
2017-11-01 04:00:00 14.6 29 Sur 56 Sur 0 987.9 -0.3 79
2017-11-01 03:00:00 14.8 24 Sur 53 Sur 0 988.2 -0.5 70
2017-11-01 02:00:00 15.2 32 Sur 53 Sur 0 988 -0.9 58
2017-11-01 01:00:00 15.6 31 Sur 53 Sur 0 988.2 -0.9 53
2017-11-01 00:00:00 15.9 29 Sur 44 Sur 0 988.7 -0.7 50
2017-10-31 23:00:00 16.1 28 Sur 45 Sur 0 988.9 -0.7 45
2017-10-31 22:00:00 16.5 26 Sur 39 Sur 0 989.1 -0.7 43
2017-10-31 21:00:00 16.7 25 Sur 36 Sur 0 989.4 -0.3 40
2017-10-31 20:00:00 16.5 23 Sur 31 Sur 0 989.6 -0.2 39
2017-10-31 19:00:00 16.2 20 Sur 28 Sur 0 989.8 0 42
2017-10-31 18:00:00 17.4 11 Sur 19 Sur 0 989.7 0 45
2017-10-31 17:00:00 17.9 12 Sur 21 Sur 0 989.8 -0.6 45
2017-10-31 16:00:00 18.2 8 Sur 20 Sur 0 989.8 -0.8 52
2017-10-31 15:00:00 19 11 Sur 20 Sur 0 989.7 -1.3 51
2017-10-31 14:00:00 19.2 10 Sur 19 Sudoeste 0 990.4 -0.5 48
2017-10-31 13:00:00 18.7 8 Sur 14 Sur 0 990.6 -0.2 52
2017-10-31 12:00:00 18.9 3 Sudoeste 15 Sur 0 991 0.4 57
2017-10-31 11:00:00 18 7 Sudeste 14 Sudeste 0 990.9 1 59
2017-10-31 10:00:00 16.7 5 Sudeste 16 Sur 0 990.8 1.1 61
2017-10-31 09:00:00 15 10 Sur 14 Sudeste 0 990.6 0.8 61
2017-10-31 08:00:00 14.4 9 Sur 21 Sudeste 0 989.9 0.1 64
2017-10-31 07:00:00 14.4 12 Sur 19 Sur 0 989.7 -0.3 63
2017-10-31 06:00:00 14.5 13 Sudeste 20 Sudeste 0 989.8 -0.5 62
2017-10-31 05:00:00 14.1 13 Sudeste 30 Este 0 989.8 -0.8 63
2017-10-31 04:00:00 13.6 21 Este 38 Este 0 990 -0.9 64
2017-10-31 03:00:00 12.8 28 Este 54 Este 0 990.3 -0.8 68
2017-10-31 02:00:00 12.6 38 Este 60 Este 0 990.6 -1.2 70
2017-10-31 01:00:00 13.1 40 Este 60 Este 0 990.9 -1.2 69
2017-10-31 00:00:00 13.2 42 Este 66 Este 0 991.1 -0.6 70
2017-10-30 23:00:00 13.4 29 Este 58 Este 0 991.8 -0.2 72
2017-10-30 22:00:00 13.2 20 Este 50 Nordeste 0 992.1 0.1 74
2017-10-30 21:00:00 13.8 35 Este 56 Este 0 991.7 0.3 71
2017-10-30 20:00:00 13.9 23 Este 45 Este 0 992 0 74
2017-10-30 19:00:00 14.1 21 Nordeste 59 Nordeste 0 992 -0.5 76
2017-10-30 18:00:00 15.1 35 Nordeste 59 Nordeste 0 991.4 -1.7 73
2017-10-30 17:00:00 16.1 23 Nordeste 46 Nordeste 0 992 -2 70
2017-10-30 16:00:00 16.7 21 Nordeste 55 Este 0 992.5 -2.2 66
2017-10-30 15:00:00 16.4 32 Nordeste 58 Nordeste 0 993.1 -2.3 68
2017-10-30 14:00:00 16.8 25 Nordeste 62 Nordeste 0 994 -1.5 65
2017-10-30 13:00:00 16.4 29 Nordeste 57 Nordeste 0 994.7 -0.8 69
2017-10-30 12:00:00 15.2 27 Nordeste 58 Este 0 995.4 0.3 76
2017-10-30 11:00:00 15.1 17 Nordeste 49 Nordeste 0 995.5 1 79
2017-10-30 10:00:00 14.1 22 Nordeste 55 Nordeste 0 995.5 0.8 84
2017-10-30 09:00:00 13.5 34 Nordeste 60 Nordeste 0 995.1 -0.1 86
2017-10-30 08:00:00 13.2 28 Nordeste 68 Este 0 994.5 -0.7 87
2017-10-30 07:00:00 12.9 27 Nordeste 46 Nordeste 0 994.7 -1.1 88
2017-10-30 06:00:00 12.9 21 Nordeste 55 Nordeste 0 995.2 -0.8 88
2017-10-30 05:00:00 12.8 27 Nordeste 58 Nordeste 0 995.2 -0.7 88
2017-10-30 04:00:00 13.1 22 Nordeste 47 Nordeste 0 995.8 -0.3 85
2017-10-30 03:00:00 13.4 29 Nordeste 53 Nordeste 0 996 -0.4 83
2017-10-30 02:00:00 13.6 31 Nordeste 52 Nordeste 0 995.9 -0.6 77
2017-10-30 01:00:00 13.4 30 Nordeste 56 Nordeste 0 996.1 0.1 81
2017-10-30 00:00:00 13.2 26 Nordeste 63 Nordeste 0 996.4 0.2 86
2017-10-29 23:00:00 13.3 29 Nordeste 69 Nordeste 0 996.5 0.6 86
2017-10-29 22:00:00 13.5 35 Nordeste 55 Nordeste 0 996 0.4 85
2017-10-29 21:00:00 13.9 23 Nordeste 62 Nordeste 0 996.2 0.5 84
2017-10-29 20:00:00 14 29 Nordeste 62 Nordeste 0 995.9 -0.2 84
2017-10-29 19:00:00 14.3 37 Nordeste 73 Nordeste 0 995.6 -0.6 82
2017-10-29 18:00:00 15.4 28 Nordeste 53 Nordeste 0 995.7 -1.1 76
2017-10-29 17:00:00 16.8 27 Nordeste 54 Nordeste 0 996.1 -1 72
2017-10-29 16:00:00 17.7 26 Nordeste 47 Nordeste 0 996.2 -1.8 70
2017-10-29 15:00:00 18.1 27 Nordeste 49 Nordeste 0 996.8 -1.6 68
2017-10-29 14:00:00 18.1 28 Nordeste 57 Nordeste 0 997.1 -1 68
2017-10-29 13:00:00 17.7 21 Nordeste 46 Nordeste 0 998 -0.1 70
2017-10-29 12:00:00 16.9 19 Nordeste 40 Nordeste 0 998.4 0.7 72
2017-10-29 11:00:00 15.8 18 Norte 36 Nordeste 0 998.1 0.9 77
2017-10-29 10:00:00 14.5 17 Nordeste 40 Nordeste 0 998.1 0.9 79
2017-10-29 09:00:00 14.4 18 Nordeste 41 Nordeste 0 997.7 0.5 79
2017-10-29 08:00:00 13.7 25 Nordeste 48 Nordeste 0 997.2 0.1 85
2017-10-29 07:00:00 13.6 30 Nordeste 48 Nordeste 0 997.2 0.1 85
2017-10-29 06:00:00 14.1 18 Nordeste 47 Este 0 997.2 -0.1 77
2017-10-29 05:00:00 17.4 21 Nordeste 46 Este 0 997.1 -0.6 54
2017-10-29 04:00:00 17.7 27 Nordeste 49 Nordeste 0 997.1 -1.2 45
2017-10-29 03:00:00 19.3 33 Nordeste 55 Nordeste 0 997.3 -0.9 37
2017-10-29 02:00:00 20.2 33 Nordeste 54 Nordeste 0 997.7 -0.6 33
2017-10-29 01:00:00 17.2 35 Nordeste 57 Nordeste 0 998.2 -0.3 58
2017-10-29 00:00:00 17 34 Nordeste 53 Nordeste 0 998.3 -0.3 62
2017-10-28 23:00:00 16.2 21 Nordeste 32 Nordeste 0 998.4 -0.2 69
2017-10-28 22:00:00 15.8 12 Norte 31 Este 0 998.5 0.2 77
2017-10-28 21:00:00 17.4 9 Nordeste 40 Nordeste 0 998.6 0.5 58
2017-10-28 20:00:00 16.7 29 Nordeste 47 Nordeste 0 998.6 0.1 75
2017-10-28 19:00:00 17.5 21 Nordeste 38 Norte 0 998.3 -0.3 75
2017-10-28 18:00:00 18.5 19 Norte 37 Norte 0 998.1 -0.9 72
2017-10-28 17:00:00 18.6 21 Norte 35 Norte 0 998.5 -1 72
2017-10-28 16:00:00 18.9 23 Nordeste 36 Nordeste 0 998.6 -1.2 70
2017-10-28 15:00:00 19.1 23 Norte 33 Norte 0 999 -0.9 66
2017-10-28 14:00:00 19.2 23 Nordeste 37 Nordeste 0 999.5 -0.7 64
2017-10-28 13:00:00 18.4 23 Norte 31 Nordeste 0 999.8 -0.4 65
2017-10-28 12:00:00 17.2 21 Nordeste 28 Nordeste 0 999.9 -0.1 68
2017-10-28 11:00:00 15.8 18 Nordeste 30 Este 0 1000.2 0.1 71
2017-10-28 10:00:00 15.6 13 Nordeste 24 Nordeste 0 1000.2 -0.1 67
2017-10-28 09:00:00 15.8 10 Norte 24 Este 0 1000 -0.4 67
2017-10-28 08:00:00 17 8 Norte 26 Norte 0 1000.1 -0.8 60
2017-10-28 07:00:00 15.7 13 Norte 26 Norte 0 1000.3 -1 72
2017-10-28 06:00:00 16.2 16 Norte 31 Nordeste 0 1000.4 -1.2 70
2017-10-28 05:00:00 16.7 18 Norte 29 Norte 0 1000.9 -0.8 68
2017-10-28 04:00:00 17.8 17 Nordeste 31 Este 0 1001.3 -0.5 58
2017-10-28 03:00:00 18.6 17 Nordeste 34 Este 0 1001.6 -0.7 52
2017-10-28 02:00:00 19.3 14 Nordeste 43 Este 0 1001.7 -0.6 52
2017-10-28 01:00:00 23.6 24 Este 52 Este 0 1001.8 -0.6 28
2017-10-28 00:00:00 20 13 Nordeste 35 Nordeste 0 1002.3 -0.2 49
2017-10-27 23:00:00 22.4 20 Nordeste 33 Este 0 1002.3 0.1 34
2017-10-27 22:00:00 19.7 16 Nordeste 27 Nordeste 0 1002.4 0.3 54
2017-10-27 21:00:00 21.9 13 Nordeste 32 Nordeste 0 1002.5 0.3 41
2017-10-27 20:00:00 22.8 20 Nordeste 36 Nordeste 0 1002.2 0.1 40
2017-10-27 19:00:00 24.8 17 Nordeste 34 Nordeste 0 1002.1 -0.3 35
2017-10-27 18:00:00 26.7 16 Nordeste 33 Nordeste 0 1002.2 -0.8 27
2017-10-27 17:00:00 27.7 18 Este 37 Este 0 1002.1 -1.2 25
2017-10-27 16:00:00 27.8 15 Este 27 Este 0 1002.4 -1.1 27
2017-10-27 15:00:00 26.2 9 Nordeste 21 Este 0 1003 -0.4 41
2017-10-27 14:00:00 27.3 10 Sudeste 22 Este 0 1003.3 0.1 30
2017-10-27 13:00:00 26 12 Este 19 Sudeste 0 1003.5 1.1 33
2017-10-27 12:00:00 26 7 Este 22 Este 0 1003.4 1.6 30
2017-10-27 11:00:00 25.1 7 Este 15 Este 0 1003.2 1.7 29
2017-10-27 10:00:00 23.9 8 Este 18 Este 0 1002.4 1.2 27
2017-10-27 09:00:00 23.3 10 Este 13 Este 0 1001.8 1 27
2017-10-27 08:00:00 23 9 Nordeste 15 Nordeste 0 1001.5 1 31
2017-10-27 07:00:00 21.6 14 Nordeste 19 Nordeste 0 1001.2 0.8 43
2017-10-27 06:00:00 21.7 13 Nordeste 14 Norte 0 1000.8 0.5 45
2017-10-27 05:00:00 21.5 3 Sudoeste 8 Sur 0 1000.5 0.1 44
2017-10-27 04:00:00 21.6 9 Sur 21 Sudeste 0 1000.4 -0.1 45
2017-10-27 03:00:00 21.1 14 Sudeste 22 Sudeste 0 1000.3 -0.3 48
2017-10-27 02:00:00 21.2 15 Sudeste 24 Sudeste 0 1000.4 0 48
2017-10-27 01:00:00 20.5 15 Sur 23 Sur 0 1000.5 0.5 51
2017-10-27 00:00:00 20 18 Sur 23 Sur 0 1000.6 0.9 53
2017-10-26 23:00:00 19.6 16 Sur 21 Sur 0 1000.4 1.3 54
2017-10-26 22:00:00 19.5 16 Sur 22 Sur 0 1000 1.4 57
2017-10-26 21:00:00 19.1 16 Sur 21 Sudeste 0 999.7 1.3 60
2017-10-26 20:00:00 18.5 15 Sur 24 Sur 0 999.1 0.9 64
2017-10-26 19:00:00 19.5 11 Sur 25 Sudoeste 0 998.6 0.6 62
2017-10-26 18:00:00 20.3 14 Sur 30 Sudoeste 0 998.4 0.2 61
2017-10-26 17:00:00 20 13 Sur 29 Sur 0 998.2 -0.1 65
2017-10-26 16:00:00 20.3 15 Sur 34 Sur 0 998 -0.2 66
2017-10-26 15:00:00 19.4 21 Sur 34 Sur 0 998.2 0.2 70
2017-10-26 14:00:00 18.4 17 Sur 36 Sur 0 998.3 0.8 81
2017-10-26 13:00:00 17.4 21 Sur 41 Sur 0 998.2 1.3 86
2017-10-26 12:00:00 16.8 21 Sur 44 Sur 0 998 2 88
2017-10-26 11:00:00 16 22 Sur 53 Sur 0 997.5 2.1 90
2017-10-26 10:00:00 15.7 24 Sur 53 Sur 0 996.9 2.1 93
2017-10-26 09:00:00 15.7 29 Sur 58 Sur 0 996 1.9 92
2017-10-26 08:00:00 15.6 27 Sur 63 Sur 0 995.4 1.7 93
2017-10-26 07:00:00 15.6 29 Sur 61 Sur 0 994.8 1.3 94
2017-10-26 06:00:00 15.6 35 Sur 65 Sur 0 994.1 0.3 94
2017-10-26 05:00:00 15.8 35 Sur 81 Sur 0 993.7 -0.2 92
2017-10-26 04:00:00 16.2 39 Sur 91 Sur 0 993.5 -0.4 91
2017-10-26 03:00:00 16.3 37 Sur 72 Sur 0 993.8 -0.2 86
2017-10-26 02:00:00 16.1 33 Sur 79 Sur 0 993.9 0.2 86
2017-10-26 01:00:00 15.8 30 Sur 59 Sur 0 993.9 0.4 88
2017-10-26 00:00:00 15.5 27 Sur 51 Sur 0 994 1 89
2017-10-25 23:00:00 15.5 31 Sur 48 Sur 0 993.7 1.1 81
2017-10-25 22:00:00 15.8 28 Sur 39 Sur 0 993.5 1 79
2017-10-25 21:00:00 16.3 24 Sur 41 Sur 0 993 0.6 75
2017-10-25 20:00:00 16.8 24 Sur 35 Sur 0 992.6 0.1 70
2017-10-25 19:00:00 18.8 20 Sur 35 Sur 0 992.5 0.1 58
2017-10-25 18:00:00 19.9 22 Sur 45 Sur 0 992.4 -0.3 48
2017-10-25 17:00:00 21.4 22 Sur 43 Sur 0 992.5 -0.8 41
2017-10-25 16:00:00 21.8 20 Sur 40 Sur 0 992.4 -1.1 33
2017-10-25 15:00:00 21.9 22 Sur 38 Sur 0 992.7 -0.9 33
2017-10-25 14:00:00 21.9 17 Sur 30 Sur 0 993.3 -0.3 32
2017-10-25 13:00:00 21.1 18 Sur 29 Sur 0 993.5 0.4 33
2017-10-25 12:00:00 20.2 15 Sur 25 Sur 0 993.6 0.8 32
2017-10-25 11:00:00 20.4 10 Sur 14 Sudeste 0 993.6 0.7 32
2017-10-25 10:00:00 18.9 11 Sur 13 Sudeste 0 993.1 0.1 34
2017-10-25 09:00:00 18.7 6 Sudeste 10 Sudeste 0 992.8 -0.3 29
2017-10-25 08:00:00 17.8 6 Este 17 Nordeste 0 992.9 -0.6 32
2017-10-25 07:00:00 16.7 12 Nordeste 20 Nordeste 0 993 -0.9 45
2017-10-25 06:00:00 16.2 9 Nordeste 13 Nordeste 0 993.1 -0.9 51
2017-10-25 05:00:00 15.9 6 Norte 21 Norte 0 993.5 -0.4 57
2017-10-25 04:00:00 14.8 15 Norte 25 Norte 0 993.9 -0.2 71
2017-10-25 03:00:00 16.2 4 Noroeste 21 Sur 0 994 -0.4 69
2017-10-25 02:00:00 19.1 15 Sur 23 Sur 0 993.9 -0.7 29
2017-10-25 01:00:00 18.3 15 Sur 24 Sudeste 0 994.1 -0.4 31
2017-10-25 00:00:00 17.6 12 Sudeste 17 Sudeste 0 994.4 -0.1 36